sensor_id;sensor_type;location;lat;lon;timestamp;temperature;humidity
9486;DHT22;4781;48.776;9.200;2023-05-07T06:13:09;14.80;99.90
9486;DHT22;4781;48.776;9.200;2023-05-07T06:15:38;14.80;99.90
9486;DHT22;4781;48.776;9.200;2023-05-07T06:18:06;15.00;99.90
9486;DHT22;4781;48.776;9.200;2023-05-07T06:20:35;15.10;99.90
9486;DHT22;4781;48.776;9.200;2023-05-07T06:23:03;15.20;99.90
9486;DHT22;4781;48.776;9.200;2023-05-07T06:25:32;15.30;99.90
9486;DHT22;4781;48.776;9.200;2023-05-07T06:28:00;15.40;99.90
9486;DHT22;4781;48.776;9.200;2023-05-07T06:30:28;15.40;99.90
9486;DHT22;4781;48.776;9.200;2023-05-07T06:32:57;15.40;99.90
9486;DHT22;4781;48.776;9.200;2023-05-07T06:35:25;15.50;99.90
9486;DHT22;4781;48.776;9.200;2023-05-07T06:37:53;15.50;99.90
9486;DHT22;4781;48.776;9.200;2023-05-07T06:40:22;15.50;99.90
9486;DHT22;4781;48.776;9.200;2023-05-07T06:42:50;15.60;99.90
9486;DHT22;4781;48.776;9.200;2023-05-07T06:45:20;15.60;99.90
9486;DHT22;4781;48.776;9.200;2023-05-07T06:47:50;15.60;99.90
9486;DHT22;4781;48.776;9.200;2023-05-07T06:50:18;15.70;99.90
9486;DHT22;4781;48.776;9.200;2023-05-07T06:52:47;15.70;99.90
9486;DHT22;4781;48.776;9.200;2023-05-07T06:55:16;15.80;99.90
9486;DHT22;4781;48.776;9.200;2023-05-07T06:57:45;15.90;99.90
9486;DHT22;4781;48.776;9.200;2023-05-07T07:00:15;16.10;99.90
9486;DHT22;4781;48.776;9.200;2023-05-07T07:02:44;16.20;99.90
9486;DHT22;4781;48.776;9.200;2023-05-07T07:05:12;16.40;99.90
9486;DHT22;4781;48.776;9.200;2023-05-07T07:07:41;16.60;99.90
9486;DHT22;4781;48.776;9.200;2023-05-07T07:10:09;16.80;99.90
9486;DHT22;4781;48.776;9.200;2023-05-07T07:12:38;17.00;99.90
9486;DHT22;4781;48.776;9.200;2023-05-07T07:15:07;17.00;99.90
9486;DHT22;4781;48.776;9.200;2023-05-07T07:17:35;17.20;99.90
9486;DHT22;4781;48.776;9.200;2023-05-07T07:20:04;17.20;99.90
9486;DHT22;4781;48.776;9.200;2023-05-07T07:22:33;17.40;99.90
9486;DHT22;4781;48.776;9.200;2023-05-07T07:25:02;17.50;99.90
9486;DHT22;4781;48.776;9.200;2023-05-07T07:27:30;17.60;99.90
9486;DHT22;4781;48.776;9.200;2023-05-07T07:30:03;17.80;99.90
9486;DHT22;4781;48.776;9.200;2023-05-07T07:32:32;18.00;99.90
9486;DHT22;4781;48.776;9.200;2023-05-07T07:35:00;18.30;99.90
9486;DHT22;4781;48.776;9.200;2023-05-07T07:37:29;18.60;99.90
9486;DHT22;4781;48.776;9.200;2023-05-07T07:39:57;18.70;99.90
9486;DHT22;4781;48.776;9.200;2023-05-07T07:42:25;18.90;99.90
9486;DHT22;4781;48.776;9.200;2023-05-07T07:44:55;19.00;99.90
9486;DHT22;4781;48.776;9.200;2023-05-07T07:47:24;19.30;99.90
9486;DHT22;4781;48.776;9.200;2023-05-07T07:49:52;19.50;99.90
9486;DHT22;4781;48.776;9.200;2023-05-07T07:52:20;19.70;99.90
9486;DHT22;4781;48.776;9.200;2023-05-07T07:54:49;19.90;99.90
9486;DHT22;4781;48.776;9.200;2023-05-07T07:57:17;20.00;99.90
9486;DHT22;4781;48.776;9.200;2023-05-07T07:59:46;20.20;99.90
9486;DHT22;4781;48.776;9.200;2023-05-07T08:02:14;20.20;99.90
9486;DHT22;4781;48.776;9.200;2023-05-07T08:04:44;20.20;99.90
9486;DHT22;4781;48.776;9.200;2023-05-07T08:07:13;20.30;99.90
9486;DHT22;4781;48.776;9.200;2023-05-07T08:09:43;20.30;99.90
9486;DHT22;4781;48.776;9.200;2023-05-07T08:12:12;20.10;99.90
9486;DHT22;4781;48.776;9.200;2023-05-07T08:14:41;20.10;99.90
9486;DHT22;4781;48.776;9.200;2023-05-07T08:17:09;20.30;99.90
9486;DHT22;4781;48.776;9.200;2023-05-07T08:19:37;20.50;99.90
9486;DHT22;4781;48.776;9.200;2023-05-07T08:22:06;20.60;99.90
9486;DHT22;4781;48.776;9.200;2023-05-07T08:24:34;20.70;99.90
9486;DHT22;4781;48.776;9.200;2023-05-07T08:27:02;20.80;99.90
9486;DHT22;4781;48.776;9.200;2023-05-07T08:29:35;20.90;99.90
9486;DHT22;4781;48.776;9.200;2023-05-07T08:32:03;20.80;99.90
9486;DHT22;4781;48.776;9.200;2023-05-07T08:34:32;20.90;99.90
9486;DHT22;4781;48.776;9.200;2023-05-07T08:37:02;21.10;99.90
9486;DHT22;4781;48.776;9.200;2023-05-07T08:39:30;21.00;99.90
9486;DHT22;4781;48.776;9.200;2023-05-07T08:42:00;21.30;99.90
9486;DHT22;4781;48.776;9.200;2023-05-07T08:44:33;21.40;99.90
9486;DHT22;4781;48.776;9.200;2023-05-07T08:47:06;21.40;99.90
9486;DHT22;4781;48.776;9.200;2023-05-07T08:49:35;21.50;99.90
9486;DHT22;4781;48.776;9.200;2023-05-07T08:52:04;21.80;99.90
9486;DHT22;4781;48.776;9.200;2023-05-07T08:54:34;22.10;99.90
9486;DHT22;4781;48.776;9.200;2023-05-07T08:57:05;22.10;99.90
9486;DHT22;4781;48.776;9.200;2023-05-07T08:59:33;22.30;99.90
9486;DHT22;4781;48.776;9.200;2023-05-07T09:02:03;22.40;99.90
9486;DHT22;4781;48.776;9.200;2023-05-07T09:04:33;22.50;99.90
9486;DHT22;4781;48.776;9.200;2023-05-07T09:07:04;22.70;99.90
9486;DHT22;4781;48.776;9.200;2023-05-07T09:09:33;22.50;99.90
9486;DHT22;4781;48.776;9.200;2023-05-07T09:12:01;22.00;99.90
9486;DHT22;4781;48.776;9.200;2023-05-07T09:14:30;22.20;99.90
9486;DHT22;4781;48.776;9.200;2023-05-07T09:16:58;22.30;99.90
9486;DHT22;4781;48.776;9.200;2023-05-07T09:19:28;22.60;99.90
9486;DHT22;4781;48.776;9.200;2023-05-07T09:22:04;22.90;99.90
9486;DHT22;4781;48.776;9.200;2023-05-07T09:24:34;23.10;99.90
9486;DHT22;4781;48.776;9.200;2023-05-07T09:27:05;23.30;99.90
9486;DHT22;4781;48.776;9.200;2023-05-07T09:29:35;23.30;99.90
9486;DHT22;4781;48.776;9.200;2023-05-07T09:32:07;23.30;99.90
9486;DHT22;4781;48.776;9.200;2023-05-07T09:34:37;22.60;99.90
9486;DHT22;4781;48.776;9.200;2023-05-07T09:37:06;22.70;99.90
9486;DHT22;4781;48.776;9.200;2023-05-07T09:39:45;22.70;99.90
9486;DHT22;4781;48.776;9.200;2023-05-07T09:42:14;23.10;99.90
9486;DHT22;4781;48.776;9.200;2023-05-07T09:44:47;23.40;99.90
9486;DHT22;4781;48.776;9.200;2023-05-07T09:47:19;23.80;99.90
9486;DHT22;4781;48.776;9.200;2023-05-07T09:49:53;23.80;99.90
9486;DHT22;4781;48.776;9.200;2023-05-07T09:52:24;24.00;99.90
9486;DHT22;4781;48.776;9.200;2023-05-07T09:54:56;24.30;99.90
9486;DHT22;4781;48.776;9.200;2023-05-07T09:57:26;24.00;99.90
9486;DHT22;4781;48.776;9.200;2023-05-07T09:59:57;23.60;99.90
9486;DHT22;4781;48.776;9.200;2023-05-07T10:02:27;23.60;99.90
9486;DHT22;4781;48.776;9.200;2023-05-07T10:05:03;23.80;99.90
9486;DHT22;4781;48.776;9.200;2023-05-07T10:07:28;24.30;99.90
9486;DHT22;4781;48.776;9.200;2023-05-07T10:10:02;24.70;99.90
9486;DHT22;4781;48.776;9.200;2023-05-07T10:12:31;24.00;99.90
9486;DHT22;4781;48.776;9.200;2023-05-07T10:15:06;24.10;99.90
9486;DHT22;4781;48.776;9.200;2023-05-07T10:17:38;24.20;99.90
9486;DHT22;4781;48.776;9.200;2023-05-07T10:20:10;24.20;99.90
9486;DHT22;4781;48.776;9.200;2023-05-07T10:22:44;24.50;99.90
9486;DHT22;4781;48.776;9.200;2023-05-07T10:25:31;24.80;99.90
9486;DHT22;4781;48.776;9.200;2023-05-07T10:28:05;25.10;99.90
9486;DHT22;4781;48.776;9.200;2023-05-07T10:31:03;25.30;99.90
9486;DHT22;4781;48.776;9.200;2023-05-07T10:33:29;25.40;99.90
9486;DHT22;4781;48.776;9.200;2023-05-07T10:36:00;24.80;99.90
9486;DHT22;4781;48.776;9.200;2023-05-07T10:38:31;25.00;99.90
9486;DHT22;4781;48.776;9.200;2023-05-07T10:41:02;24.90;99.90
9486;DHT22;4781;48.776;9.200;2023-05-07T10:43:42;25.00;99.90
9486;DHT22;4781;48.776;9.200;2023-05-07T10:46:16;25.00;99.90
9486;DHT22;4781;48.776;9.200;2023-05-07T10:54:41;25.20;99.90
9486;DHT22;4781;48.776;9.200;2023-05-07T10:57:33;25.00;99.90
9486;DHT22;4781;48.776;9.200;2023-05-07T11:03:06;25.20;99.90
9486;DHT22;4781;48.776;9.200;2023-05-07T11:05:35;25.40;99.90
9486;DHT22;4781;48.776;9.200;2023-05-07T11:08:04;25.70;99.90
9486;DHT22;4781;48.776;9.200;2023-05-07T11:10:51;25.50;99.90
9486;DHT22;4781;48.776;9.200;2023-05-07T11:13:45;25.70;99.90
9486;DHT22;4781;48.776;9.200;2023-05-07T11:16:21;25.90;99.90
9486;DHT22;4781;48.776;9.200;2023-05-07T11:18:55;25.80;99.90
9486;DHT22;4781;48.776;9.200;2023-05-07T11:21:31;25.60;99.90
9486;DHT22;4781;48.776;9.200;2023-05-07T11:24:02;25.50;99.90
9486;DHT22;4781;48.776;9.200;2023-05-07T11:26:43;25.60;99.90
9486;DHT22;4781;48.776;9.200;2023-05-07T11:29:19;25.90;99.90
9486;DHT22;4781;48.776;9.200;2023-05-07T11:31:54;25.60;99.90
9486;DHT22;4781;48.776;9.200;2023-05-07T11:34:25;25.70;99.90
9486;DHT22;4781;48.776;9.200;2023-05-07T11:36:54;25.30;99.90
9486;DHT22;4781;48.776;9.200;2023-05-07T11:39:25;25.10;99.90
9486;DHT22;4781;48.776;9.200;2023-05-07T11:41:55;25.30;99.90
9486;DHT22;4781;48.776;9.200;2023-05-07T11:44:23;25.10;99.90
9486;DHT22;4781;48.776;9.200;2023-05-07T11:46:52;25.10;99.90
9486;DHT22;4781;48.776;9.200;2023-05-07T11:49:20;25.10;99.90
9486;DHT22;4781;48.776;9.200;2023-05-07T11:51:48;24.90;99.90
9486;DHT22;4781;48.776;9.200;2023-05-07T11:54:17;24.50;99.90
9486;DHT22;4781;48.776;9.200;2023-05-07T11:56:45;24.50;99.90
9486;DHT22;4781;48.776;9.200;2023-05-07T11:59:18;24.40;99.90
9486;DHT22;4781;48.776;9.200;2023-05-07T12:01:46;24.40;99.90
9486;DHT22;4781;48.776;9.200;2023-05-07T12:04:19;24.30;99.90
9486;DHT22;4781;48.776;9.200;2023-05-07T12:06:47;24.20;99.90
9486;DHT22;4781;48.776;9.200;2023-05-07T12:09:17;24.00;99.90
9486;DHT22;4781;48.776;9.200;2023-05-07T12:11:46;24.00;99.90
9486;DHT22;4781;48.776;9.200;2023-05-07T12:14:15;23.90;99.90
9486;DHT22;4781;48.776;9.200;2023-05-07T12:16:44;23.80;99.90
9486;DHT22;4781;48.776;9.200;2023-05-07T12:19:13;23.70;99.90
9486;DHT22;4781;48.776;9.200;2023-05-07T12:21:41;23.60;99.90
